sensor_id;sensor_type;location;lat;lon;timestamp;temperature;humidity
53926;DHT22;39836;52.754;6.866;2023-04-15T00:00:57;8.10;75.50
53926;DHT22;39836;52.754;6.866;2023-04-15T00:03:24;8.00;75.50
53926;DHT22;39836;52.754;6.866;2023-04-15T00:05:49;8.00;75.50
53926;DHT22;39836;52.754;6.866;2023-04-15T00:08:16;8.00;75.60
53926;DHT22;39836;52.754;6.866;2023-04-15T00:10:42;8.00;75.60
53926;DHT22;39836;52.754;6.866;2023-04-15T00:13:11;7.90;75.60
53926;DHT22;39836;52.754;6.866;2023-04-15T00:15:36;7.90;75.70
53926;DHT22;39836;52.754;6.866;2023-04-15T00:18:02;7.90;75.80
53926;DHT22;39836;52.754;6.866;2023-04-15T00:20:28;7.80;75.80
53926;DHT22;39836;52.754;6.866;2023-04-15T00:22:54;7.80;75.80
53926;DHT22;39836;52.754;6.866;2023-04-15T00:25:20;7.80;75.90
53926;DHT22;39836;52.754;6.866;2023-04-15T00:27:45;7.80;75.90
53926;DHT22;39836;52.754;6.866;2023-04-15T00:30:11;7.80;76.00
53926;DHT22;39836;52.754;6.866;2023-04-15T00:32:37;7.70;76.00
53926;DHT22;39836;52.754;6.866;2023-04-15T00:35:02;7.70;76.10
53926;DHT22;39836;52.754;6.866;2023-04-15T00:37:29;7.70;76.10
53926;DHT22;39836;52.754;6.866;2023-04-15T00:39:55;7.60;76.10
53926;DHT22;39836;52.754;6.866;2023-04-15T00:42:20;7.60;76.20
53926;DHT22;39836;52.754;6.866;2023-04-15T00:44:46;7.60;76.20
53926;DHT22;39836;52.754;6.866;2023-04-15T00:47:12;7.60;76.30
53926;DHT22;39836;52.754;6.866;2023-04-15T00:49:39;7.50;76.30
53926;DHT22;39836;52.754;6.866;2023-04-15T00:52:05;7.50;76.40
53926;DHT22;39836;52.754;6.866;2023-04-15T00:54:30;7.40;76.40
53926;DHT22;39836;52.754;6.866;2023-04-15T00:56:56;7.50;76.50
53926;DHT22;39836;52.754;6.866;2023-04-15T00:59:22;7.40;76.50
53926;DHT22;39836;52.754;6.866;2023-04-15T01:01:48;7.40;76.60
53926;DHT22;39836;52.754;6.866;2023-04-15T01:04:15;7.40;76.60
53926;DHT22;39836;52.754;6.866;2023-04-15T01:06:40;7.30;76.60
53926;DHT22;39836;52.754;6.866;2023-04-15T01:09:06;7.40;76.70
53926;DHT22;39836;52.754;6.866;2023-04-15T01:11:32;7.30;76.70
53926;DHT22;39836;52.754;6.866;2023-04-15T01:13:59;7.30;76.70
53926;DHT22;39836;52.754;6.866;2023-04-15T01:16:24;7.30;76.80
53926;DHT22;39836;52.754;6.866;2023-04-15T01:18:51;7.30;76.90
53926;DHT22;39836;52.754;6.866;2023-04-15T01:21:17;7.30;76.90
53926;DHT22;39836;52.754;6.866;2023-04-15T01:23:46;7.30;76.90
53926;DHT22;39836;52.754;6.866;2023-04-15T01:26:12;7.20;76.90
53926;DHT22;39836;52.754;6.866;2023-04-15T01:28:38;7.20;77.00
53926;DHT22;39836;52.754;6.866;2023-04-15T01:31:11;7.20;77.00
53926;DHT22;39836;52.754;6.866;2023-04-15T01:33:39;7.20;77.10
53926;DHT22;39836;52.754;6.866;2023-04-15T01:36:06;7.10;77.10
53926;DHT22;39836;52.754;6.866;2023-04-15T01:38:38;7.10;77.10
53926;DHT22;39836;52.754;6.866;2023-04-15T01:41:04;7.10;77.20
53926;DHT22;39836;52.754;6.866;2023-04-15T01:43:31;7.00;77.10
53926;DHT22;39836;52.754;6.866;2023-04-15T01:45:57;7.00;77.10
53926;DHT22;39836;52.754;6.866;2023-04-15T01:48:23;6.90;77.10
53926;DHT22;39836;52.754;6.866;2023-04-15T01:50:48;6.80;77.10
53926;DHT22;39836;52.754;6.866;2023-04-15T01:53:14;6.80;77.20
53926;DHT22;39836;52.754;6.866;2023-04-15T01:55:41;6.70;77.20
53926;DHT22;39836;52.754;6.866;2023-04-15T01:58:07;6.70;77.20
53926;DHT22;39836;52.754;6.866;2023-04-15T02:00:32;6.60;77.30
53926;DHT22;39836;52.754;6.866;2023-04-15T02:02:58;6.60;77.30
53926;DHT22;39836;52.754;6.866;2023-04-15T02:05:24;6.60;77.30
53926;DHT22;39836;52.754;6.866;2023-04-15T02:07:50;6.50;77.40
53926;DHT22;39836;52.754;6.866;2023-04-15T02:10:16;6.50;77.40
53926;DHT22;39836;52.754;6.866;2023-04-15T02:12:42;6.40;77.40
53926;DHT22;39836;52.754;6.866;2023-04-15T02:15:08;6.40;77.40
53926;DHT22;39836;52.754;6.866;2023-04-15T02:17:35;6.40;77.40
53926;DHT22;39836;52.754;6.866;2023-04-15T02:20:02;6.40;77.40
53926;DHT22;39836;52.754;6.866;2023-04-15T02:22:30;6.30;77.50
53926;DHT22;39836;52.754;6.866;2023-04-15T02:24:56;6.30;77.60
53926;DHT22;39836;52.754;6.866;2023-04-15T02:27:22;6.30;77.60
53926;DHT22;39836;52.754;6.866;2023-04-15T02:29:47;6.30;77.70
53926;DHT22;39836;52.754;6.866;2023-04-15T02:32:15;6.30;77.70
53926;DHT22;39836;52.754;6.866;2023-04-15T02:34:41;6.30;77.70
53926;DHT22;39836;52.754;6.866;2023-04-15T02:37:12;6.20;77.70
53926;DHT22;39836;52.754;6.866;2023-04-15T02:39:37;6.20;77.80
53926;DHT22;39836;52.754;6.866;2023-04-15T02:42:03;6.20;77.80
53926;DHT22;39836;52.754;6.866;2023-04-15T02:44:31;6.20;77.80
53926;DHT22;39836;52.754;6.866;2023-04-15T02:46:57;6.10;77.80
53926;DHT22;39836;52.754;6.866;2023-04-15T02:49:24;6.10;77.80
53926;DHT22;39836;52.754;6.866;2023-04-15T02:51:50;6.10;77.80
53926;DHT22;39836;52.754;6.866;2023-04-15T02:54:19;6.10;77.80
53926;DHT22;39836;52.754;6.866;2023-04-15T02:56:47;6.00;77.80
53926;DHT22;39836;52.754;6.866;2023-04-15T02:59:13;6.10;77.80
53926;DHT22;39836;52.754;6.866;2023-04-15T03:01:38;6.00;77.80
53926;DHT22;39836;52.754;6.866;2023-04-15T03:04:04;6.00;77.90
53926;DHT22;39836;52.754;6.866;2023-04-15T03:06:32;5.90;77.80
53926;DHT22;39836;52.754;6.866;2023-04-15T03:08:57;5.90;77.80
53926;DHT22;39836;52.754;6.866;2023-04-15T03:11:24;5.80;77.80
53926;DHT22;39836;52.754;6.866;2023-04-15T03:13:51;5.80;77.90
53926;DHT22;39836;52.754;6.866;2023-04-15T03:16:17;5.80;77.80
53926;DHT22;39836;52.754;6.866;2023-04-15T03:18:43;5.70;77.80
53926;DHT22;39836;52.754;6.866;2023-04-15T03:21:08;5.60;77.80
53926;DHT22;39836;52.754;6.866;2023-04-15T03:23:34;5.60;77.80
53926;DHT22;39836;52.754;6.866;2023-04-15T03:26:04;5.50;77.80
53926;DHT22;39836;52.754;6.866;2023-04-15T03:28:30;5.50;77.90
53926;DHT22;39836;52.754;6.866;2023-04-15T03:30:55;5.50;77.90
53926;DHT22;39836;52.754;6.866;2023-04-15T03:33:21;5.50;77.90
53926;DHT22;39836;52.754;6.866;2023-04-15T03:35:47;5.50;78.00
53926;DHT22;39836;52.754;6.866;2023-04-15T03:38:12;5.40;77.90
53926;DHT22;39836;52.754;6.866;2023-04-15T03:40:40;5.30;78.00
53926;DHT22;39836;52.754;6.866;2023-04-15T03:43:06;5.30;78.10
53926;DHT22;39836;52.754;6.866;2023-04-15T03:45:32;5.30;78.10
53926;DHT22;39836;52.754;6.866;2023-04-15T03:47:57;5.30;78.00
53926;DHT22;39836;52.754;6.866;2023-04-15T03:50:23;5.20;78.00
53926;DHT22;39836;52.754;6.866;2023-04-15T03:52:49;5.20;78.20
53926;DHT22;39836;52.754;6.866;2023-04-15T03:55:15;5.20;78.20
53926;DHT22;39836;52.754;6.866;2023-04-15T03:57:41;5.10;78.10
53926;DHT22;39836;52.754;6.866;2023-04-15T04:00:08;5.10;78.20
53926;DHT22;39836;52.754;6.866;2023-04-15T04:02:35;5.10;78.30
53926;DHT22;39836;52.754;6.866;2023-04-15T04:05:00;5.10;78.10
53926;DHT22;39836;52.754;6.866;2023-04-15T04:07:26;5.10;78.10
53926;DHT22;39836;52.754;6.866;2023-04-15T04:09:52;5.00;78.30
53926;DHT22;39836;52.754;6.866;2023-04-15T04:12:18;5.00;78.40
53926;DHT22;39836;52.754;6.866;2023-04-15T04:14:43;5.00;78.20
53926;DHT22;39836;52.754;6.866;2023-04-15T04:17:09;5.00;78.20
53926;DHT22;39836;52.754;6.866;2023-04-15T04:19:34;5.00;78.20
53926;DHT22;39836;52.754;6.866;2023-04-15T04:22:01;5.00;78.30
53926;DHT22;39836;52.754;6.866;2023-04-15T04:24:26;5.00;78.40
53926;DHT22;39836;52.754;6.866;2023-04-15T04:26:52;4.90;78.40
53926;DHT22;39836;52.754;6.866;2023-04-15T04:29:18;4.90;78.50
53926;DHT22;39836;52.754;6.866;2023-04-15T04:31:43;4.90;78.60
53926;DHT22;39836;52.754;6.866;2023-04-15T04:34:10;4.90;78.70
53926;DHT22;39836;52.754;6.866;2023-04-15T04:36:36;5.00;78.90
53926;DHT22;39836;52.754;6.866;2023-04-15T04:39:01;4.90;78.80
53926;DHT22;39836;52.754;6.866;2023-04-15T04:41:27;4.80;78.80
53926;DHT22;39836;52.754;6.866;2023-04-15T04:43:53;4.80;78.80
53926;DHT22;39836;52.754;6.866;2023-04-15T04:46:18;4.80;78.90
53926;DHT22;39836;52.754;6.866;2023-04-15T04:48:44;4.80;79.00
53926;DHT22;39836;52.754;6.866;2023-04-15T04:51:10;4.80;79.00
53926;DHT22;39836;52.754;6.866;2023-04-15T04:53:36;4.70;79.10
53926;DHT22;39836;52.754;6.866;2023-04-15T04:56:02;4.70;79.10
53926;DHT22;39836;52.754;6.866;2023-04-15T04:58:28;4.70;79.20
53926;DHT22;39836;52.754;6.866;2023-04-15T05:00:54;4.60;79.20
53926;DHT22;39836;52.754;6.866;2023-04-15T05:03:20;4.70;79.30
53926;DHT22;39836;52.754;6.866;2023-04-15T05:05:46;4.70;79.30
53926;DHT22;39836;52.754;6.866;2023-04-15T05:08:14;4.70;79.40
53926;DHT22;39836;52.754;6.866;2023-04-15T05:10:39;4.60;79.40
53926;DHT22;39836;52.754;6.866;2023-04-15T05:13:05;4.70;79.40
53926;DHT22;39836;52.754;6.866;2023-04-15T05:15:31;4.60;79.60
53926;DHT22;39836;52.754;6.866;2023-04-15T05:17:57;4.60;79.50
53926;DHT22;39836;52.754;6.866;2023-04-15T05:20:23;4.60;79.50
53926;DHT22;39836;52.754;6.866;2023-04-15T05:22:49;4.60;79.50
53926;DHT22;39836;52.754;6.866;2023-04-15T05:25:14;4.70;79.60
53926;DHT22;39836;52.754;6.866;2023-04-15T05:27:41;4.70;79.60
53926;DHT22;39836;52.754;6.866;2023-04-15T05:30:07;4.60;79.60
53926;DHT22;39836;52.754;6.866;2023-04-15T05:32:33;4.70;79.70
53926;DHT22;39836;52.754;6.866;2023-04-15T05:34:59;4.70;79.70
53926;DHT22;39836;52.754;6.866;2023-04-15T05:37:25;4.70;79.70
53926;DHT22;39836;52.754;6.866;2023-04-15T05:39:50;4.70;79.70
53926;DHT22;39836;52.754;6.866;2023-04-15T05:42:16;4.80;79.80
53926;DHT22;39836;52.754;6.866;2023-04-15T05:44:42;4.80;79.80
53926;DHT22;39836;52.754;6.866;2023-04-15T05:47:08;4.80;79.80
53926;DHT22;39836;52.754;6.866;2023-04-15T05:49:34;4.90;79.90
53926;DHT22;39836;52.754;6.866;2023-04-15T05:52:00;4.90;79.90
53926;DHT22;39836;52.754;6.866;2023-04-15T05:54:26;4.90;79.90
53926;DHT22;39836;52.754;6.866;2023-04-15T05:56:52;5.00;79.90
53926;DHT22;39836;52.754;6.866;2023-04-15T05:59:18;5.00;79.90
53926;DHT22;39836;52.754;6.866;2023-04-15T06:01:44;5.10;80.00
53926;DHT22;39836;52.754;6.866;2023-04-15T06:04:09;5.10;80.00
53926;DHT22;39836;52.754;6.866;2023-04-15T06:06:36;5.20;80.10
53926;DHT22;39836;52.754;6.866;2023-04-15T06:09:03;5.30;80.10
53926;DHT22;39836;52.754;6.866;2023-04-15T06:11:32;5.30;80.10
53926;DHT22;39836;52.754;6.866;2023-04-15T06:13:58;5.40;80.20
53926;DHT22;39836;52.754;6.866;2023-04-15T06:16:23;5.50;80.20
53926;DHT22;39836;52.754;6.866;2023-04-15T06:18:49;5.60;80.20
53926;DHT22;39836;52.754;6.866;2023-04-15T06:21:15;5.60;80.20
53926;DHT22;39836;52.754;6.866;2023-04-15T06:23:40;5.80;80.30
53926;DHT22;39836;52.754;6.866;2023-04-15T06:26:06;5.80;80.20
53926;DHT22;39836;52.754;6.866;2023-04-15T06:28:32;5.90;80.20
53926;DHT22;39836;52.754;6.866;2023-04-15T06:30:58;6.00;80.20
53926;DHT22;39836;52.754;6.866;2023-04-15T06:33:24;6.10;80.20
53926;DHT22;39836;52.754;6.866;2023-04-15T06:35:49;6.10;80.30
53926;DHT22;39836;52.754;6.866;2023-04-15T06:38:15;6.30;80.30
53926;DHT22;39836;52.754;6.866;2023-04-15T06:40:41;6.40;80.40
53926;DHT22;39836;52.754;6.866;2023-04-15T06:43:07;6.50;80.40
53926;DHT22;39836;52.754;6.866;2023-04-15T06:45:33;6.60;80.40
53926;DHT22;39836;52.754;6.866;2023-04-15T06:47:59;6.60;80.40
53926;DHT22;39836;52.754;6.866;2023-04-15T06:50:25;6.70;80.40
53926;DHT22;39836;52.754;6.866;2023-04-15T06:52:52;6.80;80.30
53926;DHT22;39836;52.754;6.866;2023-04-15T06:55:18;6.80;80.30
53926;DHT22;39836;52.754;6.866;2023-04-15T06:57:44;6.90;80.20
53926;DHT22;39836;52.754;6.866;2023-04-15T07:00:10;7.00;80.20
53926;DHT22;39836;52.754;6.866;2023-04-15T07:02:36;7.00;80.10
53926;DHT22;39836;52.754;6.866;2023-04-15T07:05:03;7.10;80.00
53926;DHT22;39836;52.754;6.866;2023-04-15T07:07:29;7.10;80.00
53926;DHT22;39836;52.754;6.866;2023-04-15T07:09:55;7.10;80.00
53926;DHT22;39836;52.754;6.866;2023-04-15T07:12:20;7.20;79.90
53926;DHT22;39836;52.754;6.866;2023-04-15T07:14:46;7.30;80.00
53926;DHT22;39836;52.754;6.866;2023-04-15T07:17:12;7.30;79.90
53926;DHT22;39836;52.754;6.866;2023-04-15T07:19:37;7.40;79.90
53926;DHT22;39836;52.754;6.866;2023-04-15T07:22:03;7.40;79.80
53926;DHT22;39836;52.754;6.866;2023-04-15T07:24:29;7.40;79.70
53926;DHT22;39836;52.754;6.866;2023-04-15T07:26:55;7.50;79.80
53926;DHT22;39836;52.754;6.866;2023-04-15T07:29:23;7.50;79.50
53926;DHT22;39836;52.754;6.866;2023-04-15T07:31:48;7.60;79.50
53926;DHT22;39836;52.754;6.866;2023-04-15T07:34:14;7.70;79.60
53926;DHT22;39836;52.754;6.866;2023-04-15T07:36:41;7.70;79.50
53926;DHT22;39836;52.754;6.866;2023-04-15T07:39:06;7.70;79.50
53926;DHT22;39836;52.754;6.866;2023-04-15T07:41:32;7.80;79.40
53926;DHT22;39836;52.754;6.866;2023-04-15T07:43:58;7.90;79.50
53926;DHT22;39836;52.754;6.866;2023-04-15T07:46:25;7.90;79.40
53926;DHT22;39836;52.754;6.866;2023-04-15T07:48:52;8.00;79.30
53926;DHT22;39836;52.754;6.866;2023-04-15T07:51:19;8.10;79.30
53926;DHT22;39836;52.754;6.866;2023-04-15T07:53:46;8.20;79.20
53926;DHT22;39836;52.754;6.866;2023-04-15T07:56:12;8.30;78.90
53926;DHT22;39836;52.754;6.866;2023-04-15T07:58:38;8.40;78.80
53926;DHT22;39836;52.754;6.866;2023-04-15T08:01:04;8.40;78.80
53926;DHT22;39836;52.754;6.866;2023-04-15T08:03:30;8.50;78.50
53926;DHT22;39836;52.754;6.866;2023-04-15T08:05:56;8.60;78.60
53926;DHT22;39836;52.754;6.866;2023-04-15T08:08:22;8.60;78.60
53926;DHT22;39836;52.754;6.866;2023-04-15T08:10:48;8.70;78.60
53926;DHT22;39836;52.754;6.866;2023-04-15T08:13:14;8.80;78.30
53926;DHT22;39836;52.754;6.866;2023-04-15T08:15:40;8.90;78.10
53926;DHT22;39836;52.754;6.866;2023-04-15T08:18:06;8.90;78.00
53926;DHT22;39836;52.754;6.866;2023-04-15T08:20:32;8.90;78.00
53926;DHT22;39836;52.754;6.866;2023-04-15T08:22:58;8.90;77.90
53926;DHT22;39836;52.754;6.866;2023-04-15T08:25:24;8.90;78.00
53926;DHT22;39836;52.754;6.866;2023-04-15T08:27:50;9.00;78.00
53926;DHT22;39836;52.754;6.866;2023-04-15T08:30:15;9.00;78.00
53926;DHT22;39836;52.754;6.866;2023-04-15T08:32:44;9.10;77.90
53926;DHT22;39836;52.754;6.866;2023-04-15T08:35:10;9.10;78.00
53926;DHT22;39836;52.754;6.866;2023-04-15T08:37:36;9.20;77.60
53926;DHT22;39836;52.754;6.866;2023-04-15T08:40:02;9.30;77.50
53926;DHT22;39836;52.754;6.866;2023-04-15T08:42:33;9.40;77.60
53926;DHT22;39836;52.754;6.866;2023-04-15T08:45:03;9.50;77.40
53926;DHT22;39836;52.754;6.866;2023-04-15T08:47:30;9.60;77.10
53926;DHT22;39836;52.754;6.866;2023-04-15T08:49:58;9.70;77.30
53926;DHT22;39836;52.754;6.866;2023-04-15T08:52:30;9.70;77.10
53926;DHT22;39836;52.754;6.866;2023-04-15T08:54:57;9.80;76.70
53926;DHT22;39836;52.754;6.866;2023-04-15T08:57:25;9.80;76.80
53926;DHT22;39836;52.754;6.866;2023-04-15T08:59:56;9.80;76.60
53926;DHT22;39836;52.754;6.866;2023-04-15T09:02:24;9.80;76.10
53926;DHT22;39836;52.754;6.866;2023-04-15T09:04:50;9.60;76.40
53926;DHT22;39836;52.754;6.866;2023-04-15T09:07:16;9.60;76.60
53926;DHT22;39836;52.754;6.866;2023-04-15T09:09:42;9.60;76.70
53926;DHT22;39836;52.754;6.866;2023-04-15T09:12:08;9.60;76.70
53926;DHT22;39836;52.754;6.866;2023-04-15T09:14:34;9.60;76.60
53926;DHT22;39836;52.754;6.866;2023-04-15T09:17:04;9.60;76.60
53926;DHT22;39836;52.754;6.866;2023-04-15T09:19:30;9.60;76.90
53926;DHT22;39836;52.754;6.866;2023-04-15T09:21:58;9.60;76.90
53926;DHT22;39836;52.754;6.866;2023-04-15T09:24:24;9.70;76.60
53926;DHT22;39836;52.754;6.866;2023-04-15T09:26:52;9.70;76.70
53926;DHT22;39836;52.754;6.866;2023-04-15T09:29:19;9.70;76.80
53926;DHT22;39836;52.754;6.866;2023-04-15T09:31:45;9.70;76.80
53926;DHT22;39836;52.754;6.866;2023-04-15T09:34:11;9.70;76.90
53926;DHT22;39836;52.754;6.866;2023-04-15T09:39:12;9.80;76.70
53926;DHT22;39836;52.754;6.866;2023-04-15T09:41:38;9.80;76.60
53926;DHT22;39836;52.754;6.866;2023-04-15T09:44:04;9.80;76.80
53926;DHT22;39836;52.754;6.866;2023-04-15T09:46:41;9.90;76.60
53926;DHT22;39836;52.754;6.866;2023-04-15T09:49:08;9.90;76.60
53926;DHT22;39836;52.754;6.866;2023-04-15T09:51:35;9.90;76.80
53926;DHT22;39836;52.754;6.866;2023-04-15T09:54:01;9.90;76.70
53926;DHT22;39836;52.754;6.866;2023-04-15T09:56:37;9.90;76.80
53926;DHT22;39836;52.754;6.866;2023-04-15T09:59:09;9.80;76.80
53926;DHT22;39836;52.754;6.866;2023-04-15T10:01:35;9.80;76.80
53926;DHT22;39836;52.754;6.866;2023-04-15T10:04:04;9.70;76.80
53926;DHT22;39836;52.754;6.866;2023-04-15T10:06:31;9.70;76.90
53926;DHT22;39836;52.754;6.866;2023-04-15T10:08:57;9.70;76.90
53926;DHT22;39836;52.754;6.866;2023-04-15T10:11:24;9.80;77.00
53926;DHT22;39836;52.754;6.866;2023-04-15T10:13:53;9.80;76.90
53926;DHT22;39836;52.754;6.866;2023-04-15T10:16:20;9.70;77.10
53926;DHT22;39836;52.754;6.866;2023-04-15T10:18:53;9.80;77.20
53926;DHT22;39836;52.754;6.866;2023-04-15T10:21:20;9.80;77.20
53926;DHT22;39836;52.754;6.866;2023-04-15T10:23:48;9.80;77.20
53926;DHT22;39836;52.754;6.866;2023-04-15T10:26:15;9.80;77.10
53926;DHT22;39836;52.754;6.866;2023-04-15T10:28:45;9.70;77.10
53926;DHT22;39836;52.754;6.866;2023-04-15T10:31:14;9.80;77.10
53926;DHT22;39836;52.754;6.866;2023-04-15T10:33:42;9.80;77.20
53926;DHT22;39836;52.754;6.866;2023-04-15T10:36:09;9.80;77.10
53926;DHT22;39836;52.754;6.866;2023-04-15T10:38:41;9.90;77.30
53926;DHT22;39836;52.754;6.866;2023-04-15T10:46:39;10.00;77.00
53926;DHT22;39836;52.754;6.866;2023-04-15T10:49:14;10.00;77.00
53926;DHT22;39836;52.754;6.866;2023-04-15T10:51:42;10.10;77.00
53926;DHT22;39836;52.754;6.866;2023-04-15T10:54:14;10.10;77.10
53926;DHT22;39836;52.754;6.866;2023-04-15T10:56:51;10.10;77.00
53926;DHT22;39836;52.754;6.866;2023-04-15T10:59:16;10.10;77.10
53926;DHT22;39836;52.754;6.866;2023-04-15T11:01:53;10.00;76.80
53926;DHT22;39836;52.754;6.866;2023-04-15T11:07:43;9.90;77.20
53926;DHT22;39836;52.754;6.866;2023-04-15T11:12:39;9.90;77.30
53926;DHT22;39836;52.754;6.866;2023-04-15T11:18:09;9.80;77.20
53926;DHT22;39836;52.754;6.866;2023-04-15T11:20:36;9.80;77.20
53926;DHT22;39836;52.754;6.866;2023-04-15T11:23:03;9.90;77.20
53926;DHT22;39836;52.754;6.866;2023-04-15T11:25:31;10.00;77.00
53926;DHT22;39836;52.754;6.866;2023-04-15T11:27:59;10.00;77.10
53926;DHT22;39836;52.754;6.866;2023-04-15T11:30:27;10.00;77.10
53926;DHT22;39836;52.754;6.866;2023-04-15T11:32:58;10.10;76.90
53926;DHT22;39836;52.754;6.866;2023-04-15T11:35:24;10.10;77.00
53926;DHT22;39836;52.754;6.866;2023-04-15T11:37:51;10.10;76.90
53926;DHT22;39836;52.754;6.866;2023-04-15T11:40:22;10.20;76.90
53926;DHT22;39836;52.754;6.866;2023-04-15T11:43:21;10.20;76.80
53926;DHT22;39836;52.754;6.866;2023-04-15T11:45:58;10.20;76.90
53926;DHT22;39836;52.754;6.866;2023-04-15T11:48:29;10.20;76.80
53926;DHT22;39836;52.754;6.866;2023-04-15T11:53:42;10.20;76.60
53926;DHT22;39836;52.754;6.866;2023-04-15T11:56:09;10.30;76.50
53926;DHT22;39836;52.754;6.866;2023-04-15T11:58:36;10.30;76.60
53926;DHT22;39836;52.754;6.866;2023-04-15T12:01:03;10.30;76.70
53926;DHT22;39836;52.754;6.866;2023-04-15T12:03:29;10.20;76.90
53926;DHT22;39836;52.754;6.866;2023-04-15T12:11:19;10.30;77.20
53926;DHT22;39836;52.754;6.866;2023-04-15T12:13:47;10.30;77.50
53926;DHT22;39836;52.754;6.866;2023-04-15T12:16:20;10.30;77.60
53926;DHT22;39836;52.754;6.866;2023-04-15T12:18:50;10.30;77.80
53926;DHT22;39836;52.754;6.866;2023-04-15T12:21:20;10.30;77.90
53926;DHT22;39836;52.754;6.866;2023-04-15T12:23:50;10.30;78.00
53926;DHT22;39836;52.754;6.866;2023-04-15T12:26:17;10.30;78.00
53926;DHT22;39836;52.754;6.866;2023-04-15T12:28:43;10.30;78.00
53926;DHT22;39836;52.754;6.866;2023-04-15T12:31:10;10.30;78.10
53926;DHT22;39836;52.754;6.866;2023-04-15T12:33:36;10.30;78.00
53926;DHT22;39836;52.754;6.866;2023-04-15T12:36:02;10.30;78.00
53926;DHT22;39836;52.754;6.866;2023-04-15T12:38:28;10.10;78.30
53926;DHT22;39836;52.754;6.866;2023-04-15T12:40:54;10.00;78.50
53926;DHT22;39836;52.754;6.866;2023-04-15T12:43:19;9.90;78.70
53926;DHT22;39836;52.754;6.866;2023-04-15T12:45:45;9.80;78.80
53926;DHT22;39836;52.754;6.866;2023-04-15T12:48:11;9.80;78.90
53926;DHT22;39836;52.754;6.866;2023-04-15T12:50:36;9.80;78.80
53926;DHT22;39836;52.754;6.866;2023-04-15T12:53:02;9.90;78.70
53926;DHT22;39836;52.754;6.866;2023-04-15T12:55:29;9.90;78.60
53926;DHT22;39836;52.754;6.866;2023-04-15T12:57:55;9.80;78.80
53926;DHT22;39836;52.754;6.866;2023-04-15T13:00:21;9.70;79.10
53926;DHT22;39836;52.754;6.866;2023-04-15T13:02:47;9.70;79.10
53926;DHT22;39836;52.754;6.866;2023-04-15T13:05:13;9.70;79.20
53926;DHT22;39836;52.754;6.866;2023-04-15T13:07:40;9.70;79.40
53926;DHT22;39836;52.754;6.866;2023-04-15T13:10:06;9.60;79.40
53926;DHT22;39836;52.754;6.866;2023-04-15T13:12:32;9.50;79.80
53926;DHT22;39836;52.754;6.866;2023-04-15T13:15:02;9.40;80.00
53926;DHT22;39836;52.754;6.866;2023-04-15T13:17:29;9.30;80.20
53926;DHT22;39836;52.754;6.866;2023-04-15T13:19:55;9.30;80.60
53926;DHT22;39836;52.754;6.866;2023-04-15T13:22:21;9.30;80.60
53926;DHT22;39836;52.754;6.866;2023-04-15T13:24:47;9.30;80.70
53926;DHT22;39836;52.754;6.866;2023-04-15T13:27:12;9.30;80.70
53926;DHT22;39836;52.754;6.866;2023-04-15T13:29:38;9.20;80.80
53926;DHT22;39836;52.754;6.866;2023-04-15T13:32:05;9.20;80.90
53926;DHT22;39836;52.754;6.866;2023-04-15T13:34:31;9.20;81.30
53926;DHT22;39836;52.754;6.866;2023-04-15T13:36:57;9.10;81.10
53926;DHT22;39836;52.754;6.866;2023-04-15T13:39:22;9.10;81.20
53926;DHT22;39836;52.754;6.866;2023-04-15T13:41:48;9.00;81.50
53926;DHT22;39836;52.754;6.866;2023-04-15T13:44:14;9.00;81.70
53926;DHT22;39836;52.754;6.866;2023-04-15T13:46:40;9.00;81.70
53926;DHT22;39836;52.754;6.866;2023-04-15T13:49:07;9.00;81.60
53926;DHT22;39836;52.754;6.866;2023-04-15T13:51:32;9.00;81.60
53926;DHT22;39836;52.754;6.866;2023-04-15T13:54:01;9.00;81.60
53926;DHT22;39836;52.754;6.866;2023-04-15T13:56:27;9.00;81.70
53926;DHT22;39836;52.754;6.866;2023-04-15T13:58:53;9.00;81.90
53926;DHT22;39836;52.754;6.866;2023-04-15T14:01:23;9.10;82.00
53926;DHT22;39836;52.754;6.866;2023-04-15T14:03:49;9.20;81.80
53926;DHT22;39836;52.754;6.866;2023-04-15T14:06:15;9.10;81.70
53926;DHT22;39836;52.754;6.866;2023-04-15T14:08:41;9.20;81.50
53926;DHT22;39836;52.754;6.866;2023-04-15T14:11:07;9.10;81.40
53926;DHT22;39836;52.754;6.866;2023-04-15T14:13:33;9.00;81.50
53926;DHT22;39836;52.754;6.866;2023-04-15T14:15:58;9.00;81.60
53926;DHT22;39836;52.754;6.866;2023-04-15T14:18:25;8.90;81.80
53926;DHT22;39836;52.754;6.866;2023-04-15T14:20:50;8.90;82.00
53926;DHT22;39836;52.754;6.866;2023-04-15T14:23:16;8.90;81.70
53926;DHT22;39836;52.754;6.866;2023-04-15T14:25:42;8.80;81.90
53926;DHT22;39836;52.754;6.866;2023-04-15T14:28:07;8.80;81.90
53926;DHT22;39836;52.754;6.866;2023-04-15T14:30:33;8.70;82.00
53926;DHT22;39836;52.754;6.866;2023-04-15T14:32:59;8.80;82.00
53926;DHT22;39836;52.754;6.866;2023-04-15T14:35:25;8.70;81.80
53926;DHT22;39836;52.754;6.866;2023-04-15T14:37:55;8.70;81.60
53926;DHT22;39836;52.754;6.866;2023-04-15T14:40:21;8.70;81.60
53926;DHT22;39836;52.754;6.866;2023-04-15T14:42:47;8.70;81.60
53926;DHT22;39836;52.754;6.866;2023-04-15T14:45:12;8.70;81.60
53926;DHT22;39836;52.754;6.866;2023-04-15T14:47:38;8.70;81.60
53926;DHT22;39836;52.754;6.866;2023-04-15T14:50:04;8.70;81.70
53926;DHT22;39836;52.754;6.866;2023-04-15T14:52:31;8.70;81.40
53926;DHT22;39836;52.754;6.866;2023-04-15T14:55:07;8.70;81.50
53926;DHT22;39836;52.754;6.866;2023-04-15T14:57:35;8.70;81.40
53926;DHT22;39836;52.754;6.866;2023-04-15T15:00:02;8.60;81.40
53926;DHT22;39836;52.754;6.866;2023-04-15T15:02:28;8.60;81.50
53926;DHT22;39836;52.754;6.866;2023-04-15T15:04:54;8.60;81.50
53926;DHT22;39836;52.754;6.866;2023-04-15T15:07:21;8.60;81.50
53926;DHT22;39836;52.754;6.866;2023-04-15T15:09:47;8.60;81.60
53926;DHT22;39836;52.754;6.866;2023-04-15T15:12:16;8.60;81.60
53926;DHT22;39836;52.754;6.866;2023-04-15T15:14:42;8.60;81.60
53926;DHT22;39836;52.754;6.866;2023-04-15T15:17:08;8.70;81.40
53926;DHT22;39836;52.754;6.866;2023-04-15T15:19:34;8.60;81.30
53926;DHT22;39836;52.754;6.866;2023-04-15T15:22:00;8.60;81.40
53926;DHT22;39836;52.754;6.866;2023-04-15T15:24:26;8.60;81.40
53926;DHT22;39836;52.754;6.866;2023-04-15T15:26:51;8.60;81.50
53926;DHT22;39836;52.754;6.866;2023-04-15T15:29:17;8.60;81.60
53926;DHT22;39836;52.754;6.866;2023-04-15T15:31:43;8.60;81.50
53926;DHT22;39836;52.754;6.866;2023-04-15T15:34:08;8.60;81.30
53926;DHT22;39836;52.754;6.866;2023-04-15T15:36:34;8.60;81.30
53926;DHT22;39836;52.754;6.866;2023-04-15T15:39:00;8.60;81.40
53926;DHT22;39836;52.754;6.866;2023-04-15T15:41:26;8.60;81.40
53926;DHT22;39836;52.754;6.866;2023-04-15T15:43:55;8.60;81.40
53926;DHT22;39836;52.754;6.866;2023-04-15T15:46:20;8.60;81.40
53926;DHT22;39836;52.754;6.866;2023-04-15T15:48:48;8.60;81.40
53926;DHT22;39836;52.754;6.866;2023-04-15T15:51:14;8.70;81.50
53926;DHT22;39836;52.754;6.866;2023-04-15T15:53:40;8.60;81.50
53926;DHT22;39836;52.754;6.866;2023-04-15T15:56:05;8.60;81.40
53926;DHT22;39836;52.754;6.866;2023-04-15T15:58:32;8.60;81.40
53926;DHT22;39836;52.754;6.866;2023-04-15T16:00:58;8.60;81.40
53926;DHT22;39836;52.754;6.866;2023-04-15T16:03:24;8.50;81.50
53926;DHT22;39836;52.754;6.866;2023-04-15T16:05:49;8.50;81.70